Choose a state:
Most recent flow and stage for Idaho
(Stations highlighted in red are currently above flood stage)
USGS
station
ID
USGS station name NWS
flood
stage
(ft)
Most recent
stage
(ft)
Most recent
flow
(cfs)
Historical
peaks
(cfs)
Most recent
local
date/time
NWS
station
ID
10039500 BEAR RIVER AT BORDER, WY 10.7 1.71 165 4,880 2018-11-14 11:30:00 BRBW4
10068500 BEAR RIVER AT PESCADERO, ID 8.5 1.99 70.0 4,280 2018-11-14 11:45:00 BRAI1
10092700 BEAR RIVER AT IDAHO-UTAH STATE LINE 21 9.49 449 4,870 2018-11-14 11:45:00 BIUI1
12305000 KOOTENAI RIVER AT LEONIA, ID   15.41 16,000 123,000 2018-11-14 10:15:00 LEOI1
12306500 MOYIE RIVER AT EASTPORT ID 9 3.50 75.9 9,400 2018-11-14 10:45:00 EASI1
12308000 KOOTENAI RIVER BEL MOYIE RIVER NR BONNERS FERRY ID   75.02 18,800   2018-11-14 08:30:00 KRMI1
12308500 KOOTENAI R AT CROSSPORT NR BONNERS FERRY, ID   65.13

 

  2018-11-14 10:00:00  
12309500 KOOTENAI RIVER AT BONNERS FERRY ID 64 50.08

 

130,000 2018-11-14 10:15:00 BFEI1
12310100 KOOTENAI RIVER @ TRIBAL HATCHERY NR BONNERS FERRY   53.07 18,700 61,100 2018-11-14 10:00:00  
12314000 KOOTENAI R AT KLOCKMANN RANCH NR BONNERS FERRY ID   47.42

 

  2018-11-14 10:30:00  
12318500 KOOTENAI RIVER NR COPELAND ID   45.33

 

124,000 2018-11-14 10:30:00  
12321500 BOUNDARY CREEK NR PORTHILL ID   9.55 27.8 4,080 2018-11-14 10:00:00  
12322000 KOOTENAI RIVER AT PORTHILL ID   44.11 20,600 125,000 2018-11-14 10:45:00 PORI1
12391950 CLARK FORK RIVER BELOW CABINET GORGE DAM ID   7.98 6,990 134,000 2018-11-14 10:45:00 CBBI1
12392155 LIGHTNING CREEK AT CLARK FORK ID   9.54 27.4 16,400 2018-11-14 10:45:00 LTCI1
12392300 PACK RIVER NR COLBURN ID   16.03 0.54 6,880 2018-11-14 10:30:00  
12393000 PRIEST LAKE AT OUTLET NR COOLIN ID   0.16

 

  2018-11-14 10:30:00  
12393501 PRIEST R OUTFLOW NR COOLIN, ID   15.41 616   2018-11-14 10:15:00  
12395000 PRIEST RIVER NR PRIEST RIVER ID   1.66 803 10,800 2018-11-14 10:15:00 PRTI1
12395500 PEND OREILLE RIVER AT NEWPORT WA   33.83 18,600 200,000 2018-11-14 10:45:00 ATGW1
12411000 NF COEUR D ALENE R AB SHOSHONE CK NR PRICHARD ID   1.04 89.2 22,000 2018-11-14 10:15:00 PRCI1
12413000 NF COEUR D ALENE RIVER AT ENAVILLE ID 72 57.01 261 61,000 2018-11-14 10:45:00 ENVI1
12413040 SF COEUR D ALENE R ABV DEADMAN GULCH NR MULLAN ID  

 

101 466 2000-04-30 23:59:00  
12413125 CANYON CREEK AB MOUTH AT WALLACE, ID   20.11 16.0 734 2018-11-14 10:45:00 CCRI1
12413130 NINEMILE CREEK AB MOUTH AT WALLACE, ID   12.38 3.36 350 2018-11-14 10:30:00  
12413131 SF COEUR D ALENE R ABV PLACER CR AT WALLACE ID   12.27 48.3 1,720 2018-11-14 10:45:00 SFWI1
12413210 SF COEUR D ALENE AT ELIZABETH PARK NR KELLOGG ID   23.88 85.9 9,600 2018-11-14 10:45:00 SKGI1
12413355 SF COEUR D ALENE RIVER ABV PINE CR NR PINEHURST ID   87.85 95.5 6,000 2018-11-14 10:00:00  
12413370 EF PINE CREEK ABV NABOB CR NEAR PINEHURST ID   1.98 6.31 953 2018-11-14 10:15:00 NPLI1
12413445 PINE CREEK BELOW AMY GULCH NEAR PINEHURST ID  

 

Dis 3,310 2015-11-30 13:00:00 PINI1
12413470 SF COEUR D ALENE RIVER NR PINEHURST ID   7.31 127 11,700 2018-11-14 10:00:00 PSTI1
12413500 COEUR D ALENE RIVER NR CATALDO ID 43 32.96 407 79,000 2018-11-14 10:30:00 CTLI1
12413860 COEUR D ALENE RIVER NR HARRISON ID   21.52 572 27,300 2018-11-14 10:20:00 HARI1
12413875 ST JOE RIVER AT RED IVES RANGER STATION, ID   1.71 Ice 4,800 2018-11-14 10:00:00 SJII1
12414500 ST JOE RIVER AT CALDER, ID 13 5.38 375 53,000 2018-11-14 10:30:00 CLDI1
12414900 ST MARIES RIVER NR SANTA, ID   4.15 71.6 12,300 2018-11-14 10:15:00 SATI1
12415070 ST JOE RIVER AT SAINT MARIES, ID 32.5 25.11

 

  2018-11-14 10:30:00 SJMI1
12415135 ST JOE RIVER AT RAMSDELL NR ST MARIES ID   25.20 260   2018-11-14 10:45:00 SJRI1
12415500 COEUR D ALENE LAKE AT COEUR D ALENE ID 33 24.35

 

  2018-11-14 10:30:00 COEI1
12417650 SPOKANE RIVER BLW BLACKWELL NR COEUR D ALENE ID   25.15 2,510   2018-11-14 10:06:00  
12419000 SPOKANE RIVER NR POST FALLS ID   8.06 2,260 50,100 2018-11-14 10:30:00 PTFI1
13010065 SNAKE RIVER AB JACKSON LAKE AT FLAGG RANCH WY 10 2.52 312 15,000 2018-11-14 11:30:00 FLGW4
13011000 SNAKE RIVER NR MORAN WY   2.84 486 15,100 2018-11-14 11:45:00 JLKW4
13011500 PACIFIC CREEK AT MORAN WY 8 4.42 Ice 5,790 2018-11-14 11:30:00 PACW4
13011900 BUFFALO FORK AB LAVA CREEK NR MORAN WY 8.5 1.18 Ice 6,540 2018-11-14 11:30:00 BFKW4
13015000 GROS VENTRE RIVER AT ZENITH WY   16.89 47.9 6,170 2018-09-18 15:00:00 GVZW4
13018750 SNAKE RIVER BL FLAT CREEK NR JACKSON WY 10 1.41 1,580 30,200 2018-11-14 11:30:00 JKSW4
13022500 SNAKE RIVER AB RESERVOIR NR ALPINE WY   3.10 1,820 38,600 2018-11-14 11:30:00 ALPW4
13022920 Grey's River abv slide nr Bedford, WY   80.12

 

  2018-07-09 08:10:00  
13022925 Grey's River blw slide nr Bedford, WY   58.82

 

  2018-07-09 09:00:00  
13023000 GREYS RIVER AB RESERVOIR NR ALPINE WY   1.46 315 7,230 2018-11-14 11:30:00 GREW4
13027500 SALT RIVER AB RESERVOIR NR ETNA WY 5.5 2.05 534 5,090 2018-11-14 11:30:00 SALW4
13032500 SNAKE RIVER NR IRWIN ID   4.53 938 40,400 2018-11-14 11:30:00 PALI1
13037500 SNAKE RIVER NR HEISE ID 8 1.13 1,360 60,000 2018-11-14 11:30:00 HEII1
13038000 DRY BED NR RIRIE ID   5.51 14.0   2018-11-14 11:45:00  
13038500 SNAKE RIVER AT LORENZO ID   3.19 1,070 43,000 2018-11-14 11:15:00 LORI1
13039000 HENRYS LAKE NR LAKE ID   14.88

 

  2018-11-14 11:30:00  
13039500 HENRYS FORK NR LAKE ID   4.45 6.38 907 2018-11-14 11:45:00 HENI1
13041010 HENRYS FORK BLW COFFEE POT RAPIDS NR MACKS INN ID  

 

396 3,270 2017-10-17 14:15:00 HCFI1
13042500 HENRYS FORK NR ISLAND PARK ID   2.82 229 3,030 2018-11-14 11:45:00  
13046000 HENRYS FORK NR ASHTON ID   3.18 1,080 8,140 2018-11-14 11:15:00 HFAI1
13046995 FALL RIVER AB YELLOWSTONE CANAL NR SQUIRREL ID   5.67 567 6,930 2018-11-14 11:45:00 FAYI1
13047500 FALL RIVER NR SQUIRREL ID   0.87 281 7,060 2018-11-14 11:45:00  
13047600 FALL RIVER NR ASHTON ID   4.28 554 6,460 2018-11-14 11:45:00 FRAI1
13049500 FALL RIVER NR CHESTER ID 6.5 2.38 516 9,310 2018-11-14 11:15:00 CHEI1
13050500 HENRYS FORK AT ST ANTHONY ID 7 3.74 1,590 14,000 2018-11-14 11:45:00 ANTI1
13052200 TETON RIVER AB SOUTH LEIGH CREEK NR DRIGGS ID 4.2 1.58 226 2,980 2018-11-14 11:30:00 DGGI1
13055000 TETON RIVER NR ST ANTHONY ID 6 2.22 420 1,700,000 2018-11-14 11:15:00 TEAI1
13055250 NF TETON RIVER NR SUGAR CITY ID   4.91 181 1,880 2018-11-14 11:30:00 NFTI1
13055340 SF TETON RIVER NEAR REXBURG ID   5.19 145 3,410 2018-11-14 11:30:00 TTXI1
13056500 HENRYS FORK NR REXBURG ID 9.5 4.61 1,690 79,000 2018-11-14 11:15:00 REXI1
13057000 SNAKE RIVER NR MENAN ID 8.5 2.79 3,240 30,400 2018-11-14 11:30:00 MENI1
13057132 GREAT WESTERN SPILLBACK NR IDAHO FALLS ID   -0.44 0.00   2018-11-14 11:30:00  
13057155 SNAKE RIVER AB EAGLE ROCK NR IDAHO FALLS ID 13.2 6.37 3,440 48,600 2018-11-14 11:15:00 SIFI1
13057300 GRAYS LAKE DIV TO BLACKFOOT R BASIN NR WAYAN, ID   2.90 0.38   2018-11-14 11:15:00  
13057500 GRAYS LAKE OUTLET NR HERMAN ID   1.16 Ssn   2018-11-03 03:45:00  
13057940 WILLOW CREEK BL TEX CREEK NR RIRIE ID 5.3 2.79 Ice 2,900 2018-11-14 11:45:00 WTXI1
13058000 WILLOW CREEK NR RIRIE ID 12.1 1.11 0.00 5,080 2018-11-14 11:30:00 RIRI1
13058510 SAND CREEK NEAR UCON ID   0.32 0.00   2018-11-14 11:30:00  
13058520 WILLOW CREEK FLOODWAY CHANNEL NR UCON ID   0.61 0.00   2018-11-14 11:30:00  
13058529 WILLOW CR FLOODWAY CHANNEL AT MOUTH NR ID FALLS ID   9.29 0.00   2018-11-14 11:30:00  
13058530 WILLOW CREEK BLW FLOODWAY CHANNEL NR UCON ID   2.56 0.00   2018-11-14 11:30:00  
13060000 SNAKE RIVER NR SHELLEY ID 12.5 5.88 3,190 75,000 2018-11-14 11:15:00 SHYI1
13062500 SNAKE RIVER AT BLACKFOOT ID 10.5 4.92 2,870 43,200 2018-11-14 11:15:00 SNAI1
13063000 BLACKFOOT RIVER AB RESERVOIR NR HENRY ID 5.5 2.20 Ice 2,150 2018-11-14 11:45:00 BKHI1
13066000 BLACKFOOT RIVER NR SHELLEY ID 7.5 5.65 Ice 3,220 2018-11-14 11:30:00 SHLI1
13068300 BLACKFOOT RIVER BELOW NORTH CANAL AT BLACKFOOT ID   2.78 91.1   2018-11-14 11:45:00  
13068495 BLACKFOOT RIVER BYPASS NR BLACKFOOT ID   4.33 7.22   2018-11-14 11:30:00  
13068500 BLACKFOOT RIVER NR BLACKFOOT ID 5.8 2.58 84.5   2018-11-14 11:30:00 BLFI1
13069500 SNAKE RIVER NR BLACKFOOT ID 11 3.29 2,890 53,500 2018-11-14 11:15:00 BFTI1
13073000 PORTNEUF RIVER AT TOPAZ ID 4 2.46 145 7,120 2018-11-14 11:15:00 TOPI1
13075000 MARSH CREEK NR MCCAMMON ID 5.5 2.74 41.4 1,120 2018-11-14 11:45:00 MCCI1
13075500 PORTNEUF RIVER AT POCATELLO ID 8.5 4.31 223 2,990 2018-11-14 11:45:00 PIHI1
13075910 PORTNEUF RIVER NR TYHEE ID 6.2 4.57 247 1,740 2018-11-14 11:30:00 PTYI1
13075983 SPRING CREEK AT SHEEPSKIN RD NR FORT HALL ID   4.21 320 605 2018-11-14 11:15:00 SPSI1
13077000 SNAKE RIVER AT NEELEY ID 9.5 2.45 508 48,400 2018-11-14 11:30:00 AMFI1
13078000 RAFT RIVER AB ONEMILE CREEK NR MALTA ID 6.5 4.93 Bkw 2,060 2018-11-14 11:15:00 RRVI1
13081500 SNAKE R NR MINIDOKA ID (AT HOWELLS FERRY) 11.5 2.85 555 47,500 2018-11-14 11:30:00 MINI1
13082500 GOOSE CREEK AB TRAPPER CREEK NR OAKLEY ID 5.5 1.82 16.9 3,550 2018-11-14 11:30:00 GOSI1
13083000 TRAPPER CREEK NR OAKLEY ID   4.82 9.64 292 2018-11-14 11:30:00 TCOI1
13087505 LOWER MILNER POWER PLANT AT MILNER ID  

 

1,050   1999-10-17 23:45:00  
13087900 MILNER LAKE AT MILNER DAM ID   9.30

 

  2018-11-14 11:45:00  
13087995 SNAKE RIVER GAGING STATION AT MILNER ID   0.72 0.00   2018-11-14 11:30:00 MILI1
13089500 DEVILS WASHBOWL SPRING NR KIMBERLY 10S 18E 04AAD1S   1.56 13.3   2018-11-14 11:30:00  
13090000 SNAKE RIVER NR KIMBERLY ID  

 

880 34,200 2001-03-31 23:45:00  
13090500 SNAKE RIVER NR TWIN FALLS ID   2.51 907 40,000 2018-11-14 11:30:00 STFI1
13092747 ROCK CREEK AB HWY 30/93 XING AT TWIN FALLS ID   5.96 82.9 570 2018-11-14 11:30:00 TFAI1
13094000 SNAKE RIVER NR BUHL ID   1.68 2,150 37,100 2018-11-14 11:45:00  
13095175 BRIGGS SPRING AT HEAD NEAR BUHL ID   4.19 107   2018-11-14 11:30:00  
13095500 BOX CANYON SPRINGS NR WENDELL ID   1.42 337   2018-11-14 11:15:00  
13105000 SALMON FALLS CREEK NR SAN JACINTO NV 10 5.55 51.2 4,040 2018-11-14 10:45:00 SFLN2
13106500 SALMON RIVER CANAL CO RES NR ROGERSON ID   21.92

 

2018-11-14 11:00:00  
13108150 SALMON FALLS CREEK NR HAGERMAN ID   4.76 153 7,500 2018-11-14 11:30:00 HAGI1
13108900 CAMAS CREEK AT RED ROAD NR KILGORE ID  

 

45.0 1,040 1991-10-26 23:47:00  
13112000 CAMAS CREEK AT CAMAS ID 9.2 2.47 0.00 1,500 2018-11-14 11:30:00 CCCI1
13113000 BEAVER CREEK AT SPENCER ID 6.3 2.70 Ssn 1,190 2018-11-14 11:00:00 BVSI1
13115000 MUD LAKE NR TERRETON ID   2.74

 

  2018-11-14 11:30:00 MUDI1
13116500 MEDICINE LODGE CREEK NR SMALL ID 7.7 5.23 Ice 481 2018-11-14 11:15:00 MEDI1
13117020 BIRCH CREEK AT BLUE DOME INN NR RENO ID  

 

76.0   1990-12-13 23:49:00  
13118700 LITTLE LOST RIVER BL WET CREEK NR HOWE ID 3.4 1.20 51.4 509 2018-11-14 11:30:00 LLRI1
13118975 LITTLE LOST RIVER AB FLOOD DIVERSION NR HOWE ID   6.40 74.8 234 2018-11-14 11:15:00  
13119000 LITTLE LOST RIVER NR HOWE, ID 4.5 2.43 Ice 450 2018-11-14 11:15:00 LLHI1
13120000 NF BIG LOST RIVER AT WILD HORSE NR CHILLY ID 5.1 1.36 23.0 2,170 2018-11-14 11:15:00 BLRI1
13120500 BIG LOST RIVER AT HOWELL RANCH NR CHILLY ID 4 1.27 Ice 5,010 2018-11-14 11:00:00 HWRI1
13126000 MACKAY RES NR MACKAY ID   50.01

 

  2018-11-14 11:15:00  
13127000 BIG LOST RIVER BL MACKAY RES NR MACKAY ID 4.3 2.01 214 2,990 2018-11-14 11:45:00 MAKI1
13131000 ANTELOPE CREEK NR DARLINGTON, ID 5.6 4.64 Ice 833 2018-11-14 11:00:00 ACKI1
13132500 BIG LOST RIVER NR ARCO ID 6.5 3.23 Ice 2,500 2018-11-14 11:15:00 ARCI1
13132513 INL DIVERSION AT HEAD NEAR ARCO ID   48.05 0.00   2018-11-14 11:45:00  
13132520 BIG LOST RIVER BL INL DIV NEAR ARCO ID   42.55 Ice   2018-11-14 11:45:00  
13132535 BIG LOST R AT LINCOLN BLVD BRIDGE NR ATOMIC CITY 14.8 12.67 0.00   2018-11-14 11:45:00 LINI1
13132565 BIG LOST RIVER AB BIG LOST RIVER SINKS NR HOWE ID   3.48 0.00   2018-11-14 11:45:00  
13134556 N CHANNEL SNAKE R @ UPPER SALMON FALLS NR HAGERMAN  

 

78.6 20,800 2009-09-29 23:45:00  
13135000 SNAKE RIVER BL LOWER SALMON FALLS NR HAGERMAN ID  

 

5,330 38,500 2001-02-25 23:45:00  
13135500 BIG WOOD RIVER NR KETCHUM ID 8 4.91 53.5 5,060 2018-11-14 11:15:00 BWKI1
13135520 NF BIG WOOD RIVER NR SAWTOOTH NRA HQ NR KETCHUM ID 7.3 4.86 16.5 1,270 2018-11-14 11:30:00 NFBI1
13137000 WARM SPRINGS CREEK NEAR KETCHUM ID 12.2 9.41 33.0 1,660 2018-11-14 11:30:00 WRMI1
13137300 TRAIL CREEK NR SUN VALLEY, ID   3.91 12.5   2018-11-14 11:30:00  
13137500 TRAIL CREEK AT KETCHUM ID 7 5.16 16.2 750 2018-11-14 11:15:00 TCKI1
13138000 EAST FORK BIG WOOD RIVER AT GIMLET ID 7.9 7.25 402 822 2018-11-14 11:15:00 EFGI1
13139510 BIG WOOD RIVER AT HAILEY ID TOTAL FLOW 6 1.48 165 7,880 2018-11-14 11:00:00 HALI1
13140335 BIG WOOD R AT S BROADFORD BRIDGE NR BELLEVUE, ID   6.22 126   2018-11-14 11:45:00  
13140800 BIG WOOD RIVER AT STANTON CROSSING NR BELLEVUE ID 12 4.48 53.2 5,450 2018-11-14 11:45:00 SCBI1
13141500 CAMAS CREEK NR BLAINE ID   2.31 8.56 9,780 2018-11-14 11:45:00 CMCI1
13142500 BIG WOOD RIVER BL MAGIC DAM NR RICHFIELD ID 9 1.89 5.60 10,000 2018-11-14 11:15:00 BWMI1
13147900 LITTLE WOOD RIVER AB HIGH FIVE CREEK NR CAREY ID 5.4 1.86 49.0 2,480 2018-11-14 11:45:00 LWOI1
13148500 LITTLE WOOD RIVER NR CAREY ID 5.8 0.86 4.33 20,000 2018-11-14 11:45:00 WODI1
13150430 SILVER CREEK AT SPORTSMAN ACCESS NR PICABO ID 8.3 7.07 91.5 572 2018-11-14 11:45:00 PBOI1
13152500 MALAD RIVER NR GOODING ID   0.31 0.00 8,860 2018-11-14 11:15:00 MLDI1
13152940 MALAD POWER FLUME NR BLISS ID  

 

1,380   1999-09-27 23:45:00  
13153500 MALAD RIVER NR BLISS ID  

 

151 5,390 2010-09-29 23:45:00  
13153776 SNAKE RIVER BL BLISS DAM NR BLISS ID  

 

6,770 41,000 2010-09-29 23:45:00  
13154500 SNAKE RIVER AT KING HILL ID   6.12 7,100 47,200 2018-11-14 11:45:00 SKHI1
13159800 CANYON CR AT OREGON TRAIL XING NR MOUNTAIN HOME ID   1.78 1.74 1,420 2018-11-14 11:15:00  
131610556 MCCALLEY DAM OUTFLOW AT MOUNTAIN HOME AFB ID   1.84

 

  2018-11-14 11:30:00  
13168500 BRUNEAU RIVER NR HOT SPRING ID 9.5 4.50 40.7 6,860 2018-11-14 11:00:00 HOTI1
13171500 CJ STRIKE RES NR GRAND VIEW ID   54.75

 

  2018-11-14 11:15:00  
13171620 SNAKE RIVER BL CJ STRIKE DAM NR GRAND VIEW ID  

 

5,910 44,000 2001-04-11 23:45:00  
13172500 SNAKE RIVER NR MURPHY ID   21.57 7,240 47,300 2018-11-14 11:12:00  
13176400 EF OWYHEE RIVER AT CRUTCHER CROSSING, ID   8.20 20.0   2018-11-14 11:00:00  
13185000 BOISE RIVER NR TWIN SPRINGS ID   5.52 363 22,700 2018-11-14 11:30:00 BTSI1
13186000 SF BOISE RIVER NR FEATHERVILLE ID 7.2 1.44 210 10,900 2018-11-14 11:30:00 BRFI1
13190500 SF BOISE RIVER AT ANDERSON RANCH DAM ID   2.92 304 9,850 2018-11-14 11:15:00  
13192200 SF BOISE RIVER AT NEAL BRIDGE NR ARROWROCK DAM ID   7.14 342 8,970 2018-11-14 11:45:00  
13200000 MORES CREEK AB ROBIE CREEK NR ARROWROCK DAM ID 8.8 2.20 Ice 5,440 2018-11-14 11:30:00 MORI1
13201500 LUCKY PEAK LAKE NR BOISE ID   2945.26

 

  2018-11-14 11:15:00 LUCI1
13202000 BOISE RIVER NR BOISE ID  

 

3,100 35,500 2010-09-30 23:45:00  
13204640 COTTONWOOD CREEK BEL FIVEMILE CR NR BOISE ID   7.40 0.00 74 2018-11-14 11:30:00 COTI1
13206000 BOISE RIVER AT GLENWOOD BRIDGE NR BOISE ID 10 3.71 276 13,000 2018-11-14 11:45:00 BIGI1
13206305 BOISE RIVER SOUTH CHANNEL AT EAGLE ID   2.60 207 4,140 2018-11-14 11:30:00 BSCI1
13206400 EAGLE DRAIN AT EAGLE, ID   10.64 7.36   2018-11-14 10:45:00  
13210050 BOISE RIVER NR MIDDLETON ID  

 

434 5,800 1997-09-30 23:45:00  
13210810 FIFTEENMILE CREEK NR MIDLAND BLVD NR MIDDLETON, ID   0.47 25.6   2018-11-14 11:15:00  
13210824 N MIDDLETON DRAIN (MILL SLOUGH) AT MIDDLETON ID   5.23 26.1   2018-11-14 10:45:00  
13210831 SOUTH MIDDLETON DRAIN AT MIDDLETON ID   0.39 18.4   2018-11-14 11:00:00  
13210980 MASON CREEK AT CALDWELL ID   5.21 47.5   2018-11-14 11:15:00  
13210986 W HARTLEY GULCH NR CALDWELL ID   1.00 5.97   2018-11-14 11:00:00  
132109867 EAST HARTLEY ABV BACKWATER NR CALDWELL, ID   3.47 16.5   2018-11-14 11:30:00  
13211205 BOISE RIVER AT CALDWELL, ID   7.01 562   2018-11-14 11:15:00  
13212549 CONWAY GULCH BELOW 1ST ST AT NOTUS, ID   5.24 14.1   2018-11-14 11:00:00  
13212890 DIXIE DRAIN NR WILDER ID   1.36 84.7   2018-11-14 11:15:00  
13213000 BOISE RIVER NR PARMA ID   8.43 830 9,400 2018-11-14 11:30:00 PARI1
13213072 SAND RUN GULCH NR PARMA ID   3.83 65.9 297 2018-11-14 11:15:00  
13213100 SNAKE RIVER AT NYSSA OR   5.79 8,950 57,900 2018-11-14 11:30:00 SNYI1
13235000 SOUTH FORK PAYETTE RIVER AT LOWMAN, ID 7.5 3.13 277 8,980 2018-11-14 11:30:00 PRLI1
13236500 DEADWOOD RIVER BL DEADWOOD RES NR LOWMAN ID   2.08 52.5 2,580 2018-11-14 11:45:00 DRBI1
13237920 MIDDLE FORK PAYETTE RIVER NR CROUCH ID 11.8 5.67 137 4,690 2018-11-14 11:15:00 MFPI1
13238500 PAYETTE LAKE AT MCCALL ID   1.20

 

  2018-11-14 11:15:00  
13239000 NF PAYETTE RIVER AT MCCALL ID   2.04 47.7 4,980 2018-11-14 11:30:00 PAYI1
13240000 LAKE FORK PAYETTE RIVER AB JUMBO CR NR MCCALL ID   3.40 Ssn 18,000 2018-10-30 08:30:00  
13245000 NF PAYETTE RIVER AT CASCADE ID  

 

192 7,320 2001-04-08 23:45:00  
13246000 NF PAYETTE RIVER NR BANKS ID   3.97 245 8,830 2018-11-14 11:00:00  
13247500 PAYETTE RIVER NR HORSESHOE BEND ID   2.71 858 27,000 2018-11-14 11:30:00 HRSI1
13249500 PAYETTE RIVER NR EMMETT ID 10.5 1.67 553 32,700 2018-11-14 11:15:00 EMMI1
13250000 PAYETTE RIVER NR LETHA ID   8.27 772 27,000 2018-11-14 11:30:00 PLEI1
13251000 PAYETTE RIVER NR PAYETTE ID 12 4.51 941 32,000 2018-11-14 11:30:00 PRPI1
13258500 WEISER RIVER NR CAMBRIDGE ID 12 2.45 79.4 22,800 2018-11-14 11:00:00 CAMI1
13265500 CRANE CREEK AT MOUTH NR WEISER ID   1.43 3.50 4,800 2018-11-14 11:00:00 CRWI1
13266000 WEISER RIVER NR WEISER ID 9.5 3.88 99.8 34,500 2018-11-14 11:00:00 WSRI1
13269000 SNAKE RIVER AT WEISER ID 12 3.39 10,200 120,000 2018-11-14 11:00:00 WEII1
13290450 SNAKE RIVER AT HELLS CANYON DAM ID-OR STATE LINE   64.59 8,540 103,000 2018-11-14 10:30:00 HCDI1
13295000 VALLEY CREEK AT STANLEY ID 3.1 0.72 77.5 2,210 2018-11-14 11:00:00 VCSI1
13296000 YANKEE FORK SALMON RIVER NR CLAYTON ID 11 6.24 Ice 4,900 2018-11-14 11:15:00 YFSI1
13296500 SALMON RIVER BL YANKEE FORK NR CLAYTON ID 9.5 2.14 478 10,500 2018-11-14 11:45:00 SRYI1
13297330 THOMPSON CREEK NR CLAYTON ID   3.14 3.15 442 2018-11-14 11:45:00 TOMI1
13297350 BRUNO CREEK NR CLAYTON ID  

 

0.08 42.0 2010-09-30 23:45:00  
13297355 SQUAW CREEK BL BRUNO CREEK NR CLAYTON ID 6.2 3.38 Ice 900 2018-11-14 11:30:00 SQUI1
13302005 PAHSIMEROI RIVER AT ELLIS ID   2.13 320 710 2018-11-14 11:00:00 PAHI1
13302500 SALMON RIVER AT SALMON ID 7.5 2.30 1,230 17,700 2018-11-14 11:00:00 SMNI1
13305000 LEMHI RIVER NR LEMHI ID 6.5 4.05 258 2,430 2018-11-14 11:00:00 LERI1
13305310 LEMHI RIVER BELOW L5 DIVERSION NEAR SALMON, ID   2.20 275 2,920 2018-11-14 11:30:00  
13306336 BLACKBIRD CREEK NEAR COBALT, ID   0.38 3.80 188 2018-11-14 11:45:00  
13306370 PANTHER CREEK AT COBALT, ID   4.76 Ice 1,470 2018-11-14 11:45:00  
13306385 NAPIAS CREEK BELOW ARNETT CREEK NEAR LEESBURG, ID   5.45 11.2 1,020 2018-11-14 11:00:00  
13307000 SALMON RIVER NR SHOUP ID   2.55 1,740 25,700 2018-11-14 11:30:00  
13309220 MF SALMON RIVER AT MF LODGE NR YELLOW PINE ID   1.59 590 20,900 2018-11-14 11:45:00 MIDI1
13310199 MF SALMON RIVER AT MOUTH NR SHOUP, ID   31.15 1,120 29,300 2018-11-14 11:45:00  
13310700 SF SALMON RIVER NR KRASSEL RANGER STATION ID   2.03 193 9,710 2018-11-14 10:45:00 KRSI1
13310800 EFSF SALMON R ABV MEADOW CRK NR STIBNITE, ID   14.79 4.19   2018-10-11 10:15:00  
13310850 MEADOW CREEK NR STIBNITE, ID   3.35 3.07   2018-10-10 17:15:00  
13311000 EF OF SF SALMON RIVER AT STIBNITE, ID   4.85 Ice 430 2018-11-14 11:00:00  
13311250 EFSF SALMON R ABV SUGAR CRK NR STIBNITE, ID   10.33 11.1 527 2018-11-14 11:15:00  
13311450 SUGAR CREEK NR STIBNITE, ID   7.13 Ice 375 2018-11-14 11:15:00  
13313000 JOHNSON CREEK AT YELLOW PINE ID   1.97 76.9 6,250 2018-11-14 11:00:00 JOHI1
13316500 LITTLE SALMON RIVER AT RIGGINS ID 10 2.43 162 12,600 2018-11-14 11:00:00 RIGI1
13317000 SALMON RIVER AT WHITE BIRD ID 32 12.72 4,300 130,000 2018-11-14 10:45:00 WHBI1
13317660 SNAKE RIVER BL MCDUFF RAPIDS AT CHINA GARDENS, ID   5.21 13,400 148,000 2018-11-14 10:45:00 SNMI1
13336500 SELWAY RIVER NR LOWELL ID 14 3.95 1,510 48,900 2018-11-14 10:00:00 SELI1
13337000 LOCHSA RIVER NR LOWELL ID   2.54 884 35,100 2018-11-14 10:00:00 LOCI1
13337099 CLEAR CK AT KOOSKIA NATIONAL FISH HATCHERY   12.89 44.6   2018-11-14 09:45:00  
13337500 SF CLEARWATER RIVER NR ELK CITY ID  

 

Dis 4,040 2017-10-25 12:00:00  
13338500 SF CLEARWATER RIVER AT STITES ID 8 3.26 322 17,500 2018-11-14 10:15:00 STII1
13339500 LOLO CREEK NR GREER ID   8.57 109 6,810 2018-11-14 10:15:00  
13340000 CLEARWATER RIVER AT OROFINO ID 17 3.55 2,910 87,300 2018-11-14 10:15:00 ORFI1
13340600 NF CLEARWATER RIVER NR CANYON RANGER STATION ID   6.11 1,150 37,500 2018-11-14 10:45:00  
13341050 CLEARWATER RIVER NR PECK ID   4.55 4,600 127,000 2018-11-14 10:30:00 PEKI1
13341140 BIG CANYON CREEK NR PECK ID   4.37 12.2   2018-11-14 10:30:00  
13341570 POTLATCH RIVER BEL LITTLE POTLATCH CR NR SPALDING   4.94 36.4 19,100 2018-11-14 10:00:00 PRII1
13342295 WEBB CREEK NEAR SWEETWATER ID   2.94 0.92 360 2018-11-14 10:30:00  
13342340 SWEETWATER CREEK AT MOUTH AT SWEETWATER ID   3.67 17.0 600 2018-11-14 10:30:00  
13342450 LAPWAI CREEK NR LAPWAI, ID   2.71 23.9 5,010 2018-11-14 10:30:00 LAPI1
13342500 CLEARWATER RIVER AT SPALDING ID 18 3.79 4,880 177,000 2018-11-14 10:00:00 SPDI1
13345000 PALOUSE RIVER NR POTLATCH, ID 15 5.08 10.6 14,600 2018-11-14 10:45:00 PLOI1
13346800 PARADISE CR AT UNIVERSITY OF IDAHO AT MOSCOW ID 9.2 3.59 0.48 970 2018-11-14 10:45:00 PACI1
4357331144813 SALMON RIVER AT BUSTERBACK DIVERSION NR OBSIDIAN   0.92 46.3   2018-11-01 01:00:00